createdAt,value
2023-07-19T00:00:43.070Z,75.29
2023-07-19T00:03:09.919Z,79.34
2023-07-19T00:05:36.743Z,63.23
2023-07-19T00:08:05.551Z,60.19
2023-07-19T00:10:32.971Z,66.48
2023-07-19T00:12:59.638Z,60.11
2023-07-19T00:15:26.470Z,59.23
2023-07-19T00:17:53.160Z,59.61
2023-07-19T00:20:20.386Z,58.96
2023-07-19T00:22:47.424Z,58.84
2023-07-19T00:25:15.596Z,59.34
2023-07-19T00:27:42.212Z,68.46
2023-07-19T00:30:09.815Z,67.74
2023-07-19T00:32:36.464Z,62.70
2023-07-19T00:35:03.422Z,59.98
2023-07-19T00:37:30.115Z,71.36
2023-07-19T00:39:56.843Z,61.66
2023-07-19T00:42:24.828Z,61.29
2023-07-19T00:44:51.860Z,59.82
2023-07-19T00:47:18.503Z,59.13
2023-07-19T00:49:45.439Z,59.16
2023-07-19T00:52:12.966Z,59.10
2023-07-19T00:54:40.478Z,59.21
2023-07-19T00:57:09.083Z,59.03
2023-07-19T00:59:37.973Z,59.11
2023-07-19T01:02:05.698Z,58.88
2023-07-19T01:04:32.656Z,62.72
2023-07-19T01:06:59.418Z,62.18
2023-07-19T01:09:27.636Z,72.32
2023-07-19T01:11:54.285Z,70.56
2023-07-19T01:14:20.970Z,68.02
2023-07-19T01:16:48.951Z,62.52
2023-07-19T01:19:17.264Z,62.48
2023-07-19T01:21:43.982Z,60.05
2023-07-19T01:24:12.075Z,59.51
2023-07-19T01:26:38.731Z,59.47
2023-07-19T01:29:05.331Z,59.25
2023-07-19T01:31:32.000Z,59.83
2023-07-19T01:33:58.634Z,61.80
2023-07-19T01:36:27.110Z,59.55
2023-07-19T01:38:53.775Z,59.65
2023-07-19T01:41:22.240Z,62.65
2023-07-19T01:43:49.142Z,61.55
2023-07-19T01:46:15.795Z,60.04
2023-07-19T01:48:42.553Z,59.78
2023-07-19T01:51:09.175Z,59.49
2023-07-19T01:53:35.951Z,76.68
2023-07-19T01:56:02.712Z,62.33
2023-07-19T01:58:30.827Z,63.27
2023-07-19T02:00:57.501Z,65.98
2023-07-19T02:03:24.228Z,65.14
2023-07-19T02:05:58.416Z,61.53
2023-07-19T02:08:25.355Z,60.31
2023-07-19T02:10:52.053Z,61.51
2023-07-19T02:13:18.789Z,59.97
2023-07-19T02:15:47.556Z,59.68
2023-07-19T02:18:14.519Z,59.38
2023-07-19T02:20:45.431Z,58.50
2023-07-19T02:23:13.049Z,68.41
2023-07-19T02:25:41.627Z,61.89
2023-07-19T02:28:08.479Z,60.31
2023-07-19T02:30:35.130Z,59.90
2023-07-19T02:33:03.127Z,59.56
2023-07-19T02:35:29.819Z,59.73
2023-07-19T02:37:56.506Z,59.48
2023-07-19T02:40:23.160Z,59.43
2023-07-19T02:42:49.818Z,59.30
2023-07-19T02:45:16.651Z,59.18
2023-07-19T02:47:43.290Z,59.01
2023-07-19T02:50:11.960Z,58.93
2023-07-19T02:52:38.618Z,59.14
2023-07-19T02:55:06.028Z,66.41
2023-07-19T02:57:32.761Z,64.27
2023-07-19T02:59:59.506Z,60.24
2023-07-19T03:02:26.161Z,59.41
2023-07-19T03:04:52.906Z,59.28
2023-07-19T03:07:21.210Z,62.27
2023-07-19T03:09:47.838Z,60.05
2023-07-19T03:12:14.475Z,59.23
2023-07-19T03:14:41.098Z,59.02
2023-07-19T03:17:08.046Z,61.28
2023-07-19T03:19:36.461Z,59.96
2023-07-19T03:22:03.353Z,59.19
2023-07-19T03:24:31.437Z,67.77
2023-07-19T03:26:58.341Z,62.08
2023-07-19T03:29:25.023Z,61.32
2023-07-19T03:31:51.838Z,60.20
2023-07-19T03:34:18.440Z,65.24
2023-07-19T03:36:45.085Z,60.56
2023-07-19T03:39:11.726Z,59.54
2023-07-19T03:41:39.718Z,59.42
2023-07-19T03:44:06.531Z,59.46
2023-07-19T03:46:33.456Z,58.97
2023-07-19T03:49:00.163Z,58.95
2023-07-19T03:51:27.010Z,71.95
2023-07-19T03:53:53.846Z,63.42
2023-07-19T03:56:20.567Z,60.37
2023-07-19T03:58:50.501Z,59.72
2023-07-19T04:01:17.380Z,59.51
2023-07-19T04:03:46.175Z,59.35
2023-07-19T04:06:14.098Z,59.43
2023-07-19T04:08:40.769Z,59.43
2023-07-19T04:11:07.433Z,59.06
2023-07-19T04:13:34.040Z,59.29
2023-07-19T04:16:02.057Z,59.39
2023-07-19T04:18:28.693Z,65.25
2023-07-19T04:20:56.708Z,67.58
2023-07-19T04:23:23.476Z,60.82
2023-07-19T04:25:50.530Z,60.85
2023-07-19T04:28:17.187Z,60.12
2023-07-19T04:30:47.218Z,60.37
2023-07-19T04:33:16.687Z,73.98
2023-07-19T04:35:43.465Z,69.37
2023-07-19T04:38:10.105Z,62.30
2023-07-19T04:40:36.857Z,60.83
2023-07-19T04:43:03.529Z,60.39
2023-07-19T04:45:31.246Z,60.83
2023-07-19T04:47:58.934Z,59.96
2023-07-19T04:50:26.994Z,59.70
2023-07-19T04:52:55.217Z,59.60
2023-07-19T04:55:22.172Z,59.93
2023-07-19T04:57:48.858Z,59.70
2023-07-19T05:00:19.324Z,60.55
2023-07-19T05:02:46.502Z,60.00
2023-07-19T05:05:13.746Z,73.96
2023-07-19T05:07:41.813Z,62.08
2023-07-19T05:10:09.679Z,60.80
2023-07-19T05:12:36.771Z,60.40
2023-07-19T05:15:03.959Z,60.32
2023-07-19T05:17:30.720Z,59.88
2023-07-19T05:19:57.426Z,59.45
2023-07-19T05:22:24.282Z,60.17
2023-07-19T05:24:52.476Z,60.09
2023-07-19T05:27:19.183Z,59.98
2023-07-19T05:29:45.831Z,59.50
2023-07-19T05:32:12.520Z,68.27
2023-07-19T05:34:39.566Z,66.17
2023-07-19T05:37:07.347Z,61.03
2023-07-19T05:39:34.537Z,67.64
2023-07-19T05:42:02.585Z,71.41
2023-07-19T05:44:29.275Z,76.89
2023-07-19T05:46:55.977Z,67.63
2023-07-19T05:49:22.637Z,67.34
2023-07-19T05:51:49.350Z,65.05
2023-07-19T05:54:16.756Z,62.36
2023-07-19T05:56:43.612Z,74.55
2023-07-19T05:59:12.180Z,69.51
2023-07-19T06:01:39.384Z,80.75
2023-07-19T06:04:06.942Z,64.52
2023-07-19T06:06:34.435Z,62.28
2023-07-19T06:09:02.472Z,62.00
2023-07-19T06:11:29.204Z,62.66
2023-07-19T06:13:55.870Z,62.59
2023-07-19T06:18:51.462Z,63.16
2023-07-19T06:21:18.545Z,63.03
2023-07-19T06:23:45.413Z,63.05
2023-07-19T06:26:12.078Z,62.41
2023-07-19T06:28:38.736Z,61.81
2023-07-19T06:31:05.414Z,66.10
2023-07-19T06:33:33.438Z,65.26
2023-07-19T06:36:00.252Z,66.84
2023-07-19T06:38:27.053Z,70.93
2023-07-19T06:40:53.683Z,65.52
2023-07-19T06:43:20.323Z,75.04
2023-07-19T06:45:47.360Z,71.27
2023-07-19T06:48:14.042Z,63.61
2023-07-19T06:50:42.420Z,75.78
2023-07-19T06:53:09.092Z,63.67
2023-07-19T06:55:35.719Z,67.80
2023-07-19T06:58:02.642Z,69.16
2023-07-19T07:00:29.264Z,77.85
2023-07-19T07:02:55.971Z,80.82
2023-07-19T07:05:22.720Z,67.66
2023-07-19T07:07:50.677Z,64.08
2023-07-19T07:10:17.326Z,63.24
2023-07-19T07:12:45.296Z,62.99
2023-07-19T07:15:11.944Z,74.62
2023-07-19T07:17:41.617Z,63.49
2023-07-19T07:20:09.156Z,62.64
2023-07-19T07:22:35.830Z,62.29
2023-07-19T07:25:04.486Z,72.69
2023-07-19T07:27:31.209Z,78.89
2023-07-19T07:29:59.236Z,78.22
2023-07-19T07:32:25.876Z,79.41
2023-07-19T07:34:52.620Z,78.50
2023-07-19T07:37:19.256Z,73.71
2023-07-19T07:39:45.888Z,66.88
2023-07-19T07:42:13.852Z,78.53
2023-07-19T07:44:40.489Z,77.51
2023-07-19T07:47:07.136Z,68.68
2023-07-19T07:49:34.092Z,68.68
2023-07-19T07:52:00.745Z,76.03
2023-07-19T07:54:27.617Z,64.53
2023-07-19T07:56:54.291Z,63.89
2023-07-19T07:59:22.292Z,64.51
2023-07-19T08:01:48.930Z,63.63
2023-07-19T08:04:15.589Z,63.22
2023-07-19T08:06:42.313Z,69.10
2023-07-19T08:09:08.977Z,63.56
2023-07-19T08:11:35.613Z,63.24
2023-07-19T08:14:02.325Z,63.12
2023-07-19T08:16:30.886Z,63.00
2023-07-19T08:18:57.615Z,62.82
2023-07-19T08:21:35.323Z,72.28
2023-07-19T08:24:04.331Z,63.82
2023-07-19T08:26:31.082Z,63.00
2023-07-19T08:28:57.708Z,66.37
2023-07-19T08:31:25.104Z,64.29
2023-07-19T08:33:54.625Z,63.75
2023-07-19T08:36:21.561Z,63.07
2023-07-19T08:38:48.754Z,63.31
2023-07-19T08:41:22.756Z,63.12
2023-07-19T08:43:49.965Z,65.18
2023-07-19T08:46:19.539Z,63.10
2023-07-19T08:48:50.635Z,63.16
2023-07-19T08:51:19.608Z,63.34
2023-07-19T08:53:46.463Z,63.18
2023-07-19T08:56:13.787Z,63.32
2023-07-19T08:58:40.961Z,63.33
2023-07-19T09:01:08.685Z,63.29
2023-07-19T09:03:35.600Z,68.52
2023-07-19T09:06:02.778Z,66.94
2023-07-19T09:08:37.318Z,63.23
2023-07-19T09:11:04.161Z,63.24
2023-07-19T09:13:31.693Z,63.12
2023-07-19T09:15:58.533Z,62.93
2023-07-19T09:18:31.265Z,62.96
2023-07-19T09:20:59.746Z,62.99
2023-07-19T09:23:26.378Z,63.15
2023-07-19T09:25:58.634Z,63.08
2023-07-19T09:28:25.961Z,63.39
2023-07-19T09:30:55.684Z,63.26
2023-07-19T09:33:22.392Z,63.08
2023-07-19T09:35:53.978Z,62.96
2023-07-19T09:38:21.348Z,63.05
2023-07-19T09:40:48.029Z,63.78
2023-07-19T09:43:17.020Z,63.08
2023-07-19T09:45:44.271Z,63.30
2023-07-19T09:48:11.645Z,63.20
2023-07-19T09:50:40.982Z,63.43
2023-07-19T09:53:11.647Z,63.36
2023-07-19T09:55:38.793Z,62.92
2023-07-19T09:58:08.160Z,71.29
2023-07-19T10:00:37.045Z,63.48
2023-07-19T10:03:06.224Z,63.48
2023-07-19T10:05:32.895Z,65.93
2023-07-19T10:08:04.952Z,63.55
2023-07-19T10:10:38.933Z,63.56
2023-07-19T10:13:07.214Z,68.02
2023-07-19T10:15:34.056Z,74.17
2023-07-19T10:18:02.510Z,63.37
2023-07-19T10:20:31.668Z,70.00
2023-07-19T10:23:00.285Z,61.09
2023-07-19T10:25:28.853Z,61.89
2023-07-19T10:28:03.423Z,62.93
2023-07-19T10:30:46.674Z,63.50
2023-07-19T10:33:16.490Z,62.81
2023-07-19T10:35:43.477Z,63.27
2023-07-19T10:38:14.611Z,74.70
2023-07-19T10:40:44.686Z,65.94
2023-07-19T10:43:11.439Z,61.12
2023-07-19T10:45:39.342Z,60.98
2023-07-19T10:48:06.504Z,58.82
2023-07-19T10:50:34.481Z,65.41
2023-07-19T10:53:01.149Z,67.94
2023-07-19T10:55:51.730Z,61.63
2023-07-19T10:58:15.925Z,61.79
2023-07-19T11:00:44.613Z,67.23
2023-07-19T11:03:15.139Z,66.85
2023-07-19T11:05:46.810Z,62.94
2023-07-19T11:08:20.063Z,69.87
2023-07-19T11:10:46.779Z,62.68
2023-07-19T11:13:14.333Z,63.10
2023-07-19T11:15:42.563Z,62.96
2023-07-19T11:18:09.275Z,63.04
2023-07-19T11:20:38.063Z,63.41
2023-07-19T11:23:09.157Z,62.89
2023-07-19T11:25:36.861Z,64.77
2023-07-19T11:28:03.733Z,61.28
2023-07-19T11:30:37.717Z,62.65
2023-07-19T11:33:05.196Z,64.58
2023-07-19T11:35:32.392Z,63.29
2023-07-19T11:37:59.484Z,60.24
2023-07-19T11:40:27.888Z,57.93
2023-07-19T11:42:56.649Z,62.26
2023-07-19T11:45:26.313Z,61.86
2023-07-19T11:47:58.724Z,63.24
2023-07-19T11:50:26.225Z,63.61
2023-07-19T11:52:57.119Z,63.67
2023-07-19T11:55:25.952Z,62.11
2023-07-19T11:57:55.471Z,63.28
2023-07-19T12:00:24.075Z,62.36
2023-07-19T12:02:53.350Z,60.98
2023-07-19T12:05:21.936Z,58.09
2023-07-19T12:07:53.058Z,60.51
2023-07-19T12:10:20.960Z,59.67
2023-07-19T12:12:49.728Z,60.31
2023-07-19T12:15:18.838Z,59.06
2023-07-19T12:17:46.168Z,64.13
2023-07-19T12:20:13.168Z,63.61
2023-07-19T12:22:42.170Z,64.13
2023-07-19T12:25:09.941Z,62.70
2023-07-19T12:27:36.769Z,64.28
2023-07-19T12:30:04.897Z,63.49
2023-07-19T12:32:34.245Z,63.30
2023-07-19T12:35:02.276Z,64.33
2023-07-19T12:37:29.133Z,57.64
2023-07-19T12:39:55.914Z,60.18
2023-07-19T12:42:22.775Z,53.77
2023-07-19T12:44:49.536Z,57.92
2023-07-19T12:47:16.997Z,57.18
2023-07-19T12:49:45.568Z,62.44
2023-07-19T12:52:13.191Z,61.71
2023-07-19T12:54:40.498Z,57.04
2023-07-19T12:57:08.048Z,52.99
2023-07-19T12:59:36.430Z,53.55
2023-07-19T13:02:05.145Z,53.84
2023-07-19T13:04:33.362Z,53.22
2023-07-19T13:07:04.580Z,55.52
2023-07-19T13:09:31.688Z,55.11
2023-07-19T13:11:59.001Z,54.98
2023-07-19T13:14:25.924Z,56.76
2023-07-19T13:17:05.602Z,54.76
2023-07-19T13:19:37.727Z,53.48
2023-07-19T13:22:06.430Z,56.45
2023-07-19T13:24:33.458Z,58.02
2023-07-19T13:27:00.806Z,54.90
2023-07-19T13:29:27.431Z,57.51
2023-07-19T13:31:55.317Z,56.22
2023-07-19T13:34:21.929Z,57.80
2023-07-19T13:39:19.410Z,54.74
2023-07-19T13:41:46.086Z,55.44
2023-07-19T13:44:12.858Z,58.04
2023-07-19T13:46:39.541Z,58.67
2023-07-19T13:49:07.594Z,57.66
2023-07-19T13:51:34.225Z,57.53
2023-07-19T13:54:01.554Z,61.40
2023-07-19T13:56:29.566Z,53.81
2023-07-19T13:58:56.241Z,55.31
2023-07-19T14:01:23.057Z,59.05
2023-07-19T14:03:50.541Z,54.63
2023-07-19T14:06:17.333Z,56.98
2023-07-19T14:08:44.065Z,56.54
2023-07-19T14:11:10.799Z,58.46
2023-07-19T14:13:39.361Z,57.44
2023-07-19T14:16:06.316Z,58.20
2023-07-19T14:18:33.025Z,57.49
2023-07-19T14:20:59.816Z,61.57
2023-07-19T14:23:26.639Z,61.17
2023-07-19T14:25:53.295Z,60.14
2023-07-19T14:28:20.171Z,62.21
2023-07-19T14:30:48.202Z,60.85
2023-07-19T14:33:15.162Z,59.14
2023-07-19T14:35:41.889Z,59.46
2023-07-19T14:38:08.773Z,62.28
2023-07-19T14:40:36.317Z,62.57
2023-07-19T14:43:03.005Z,62.43
2023-07-19T14:45:30.004Z,62.47
2023-07-19T14:47:58.046Z,52.36
2023-07-19T14:50:24.913Z,53.16
2023-07-19T14:52:51.786Z,53.36
2023-07-19T14:55:18.644Z,48.01
2023-07-19T14:57:45.563Z,49.81
2023-07-19T15:00:14.407Z,55.62
2023-07-19T15:02:42.105Z,59.07
2023-07-19T15:05:11.159Z,59.94
2023-07-19T15:07:38.145Z,61.16
2023-07-19T15:10:06.032Z,52.14
2023-07-19T15:12:32.748Z,58.99
2023-07-19T15:14:59.376Z,55.74
2023-07-19T15:17:26.539Z,53.96
2023-07-19T15:19:53.593Z,58.81
2023-07-19T15:22:22.016Z,45.82
2023-07-19T15:24:48.801Z,58.48
2023-07-19T15:27:15.610Z,58.46
2023-07-19T15:29:42.297Z,59.23
2023-07-19T15:32:09.427Z,57.41
2023-07-19T15:34:36.029Z,46.79
2023-07-19T15:37:02.989Z,58.41
2023-07-19T15:39:33.977Z,41.47
2023-07-19T15:42:00.854Z,45.41
2023-07-19T15:44:35.843Z,45.52
2023-07-19T15:47:03.906Z,56.26
2023-07-19T15:49:30.925Z,60.24
2023-07-19T15:51:58.365Z,56.39
2023-07-19T15:54:25.089Z,45.87
2023-07-19T15:56:53.145Z,59.45
2023-07-19T15:59:20.218Z,43.03
2023-07-19T16:01:46.964Z,46.53
2023-07-19T16:04:14.095Z,45.18
2023-07-19T16:06:40.773Z,45.98
2023-07-19T16:09:07.409Z,58.13
2023-07-19T16:11:34.029Z,43.62
2023-07-19T16:14:02.035Z,53.21
2023-07-19T16:16:28.848Z,60.27
2023-07-19T16:18:55.474Z,58.47
2023-07-19T16:21:22.334Z,45.72
2023-07-19T16:23:49.051Z,57.42
2023-07-19T16:26:15.750Z,60.48
2023-07-19T16:28:42.678Z,61.85
2023-07-19T16:31:14.791Z,60.58
2023-07-19T16:33:41.432Z,60.31
2023-07-19T16:36:08.177Z,59.54
2023-07-19T16:38:34.812Z,59.37
2023-07-19T16:41:01.557Z,58.19
2023-07-19T16:43:28.275Z,61.33
2023-07-19T16:45:54.952Z,60.28
2023-07-19T16:48:23.073Z,44.59
2023-07-19T16:50:49.726Z,43.99
2023-07-19T16:53:18.237Z,57.14
2023-07-19T16:55:46.607Z,47.77
2023-07-19T16:58:13.381Z,59.60
2023-07-19T17:00:40.393Z,60.42
2023-07-19T17:03:07.304Z,61.22
2023-07-19T17:05:35.844Z,60.30
2023-07-19T17:08:07.438Z,61.17
2023-07-19T17:10:38.515Z,61.01
2023-07-19T17:13:06.409Z,61.35
2023-07-19T17:15:36.071Z,61.93
2023-07-19T17:18:03.679Z,61.51
2023-07-19T17:20:32.370Z,52.47
2023-07-19T17:23:00.468Z,58.93
2023-07-19T17:25:27.101Z,60.95
2023-07-19T17:27:53.707Z,54.46
2023-07-19T17:30:20.503Z,62.08
2023-07-19T17:32:49.040Z,53.14
2023-07-19T17:35:17.104Z,62.03
2023-07-19T17:37:43.744Z,61.32
2023-07-19T17:40:13.116Z,61.56
2023-07-19T17:42:40.472Z,61.67
2023-07-19T17:45:08.967Z,61.70
2023-07-19T17:47:35.644Z,61.83
2023-07-19T17:50:02.466Z,62.29
2023-07-19T17:52:30.720Z,62.33
2023-07-19T17:54:58.047Z,61.61
2023-07-19T17:57:26.123Z,62.11
2023-07-19T17:59:52.855Z,62.25
2023-07-19T18:02:20.805Z,61.69
2023-07-19T18:04:47.966Z,61.12
2023-07-19T18:07:14.953Z,62.27
2023-07-19T18:09:42.263Z,62.31
2023-07-19T18:12:10.398Z,62.22
2023-07-19T18:14:38.577Z,52.99
2023-07-19T18:17:06.039Z,60.03
2023-07-19T18:19:33.433Z,59.36
2023-07-19T18:22:03.641Z,59.90
2023-07-19T18:24:32.684Z,59.71
2023-07-19T18:27:00.116Z,59.96
2023-07-19T18:29:27.206Z,59.62
2023-07-19T18:31:55.478Z,57.61
2023-07-19T18:34:22.248Z,59.91
2023-07-19T18:36:50.047Z,60.04
2023-07-19T18:39:17.022Z,60.18
2023-07-19T18:41:43.910Z,59.74
2023-07-19T18:44:10.753Z,59.91
2023-07-19T18:46:37.465Z,60.05
2023-07-19T18:49:05.606Z,60.19
2023-07-19T18:51:32.348Z,59.89
2023-07-19T18:53:59.026Z,59.66
2023-07-19T18:56:28.575Z,59.88
2023-07-19T18:58:55.916Z,59.73
2023-07-19T19:01:22.939Z,59.90
2023-07-19T19:03:50.304Z,60.48
2023-07-19T19:06:18.401Z,60.06
2023-07-19T19:08:45.040Z,59.99
2023-07-19T19:11:11.920Z,59.73
2023-07-19T19:13:38.548Z,59.60
2023-07-19T19:16:05.713Z,58.87
2023-07-19T19:18:32.496Z,58.72
2023-07-19T19:20:59.714Z,58.99
2023-07-19T19:23:29.459Z,58.64
2023-07-19T19:25:56.377Z,58.07
2023-07-19T19:28:23.382Z,58.12
2023-07-19T19:30:50.269Z,57.70
2023-07-19T19:33:17.066Z,57.32
2023-07-19T19:35:44.195Z,57.62
2023-07-19T19:38:10.886Z,57.99
2023-07-19T19:40:38.884Z,58.43
2023-07-19T19:43:05.528Z,57.56
2023-07-19T19:45:32.183Z,52.58
2023-07-19T19:47:58.871Z,57.75
2023-07-19T19:50:28.596Z,57.94
2023-07-19T19:53:03.802Z,58.20
2023-07-19T19:58:07.493Z,52.74
2023-07-19T20:00:35.757Z,58.93
2023-07-19T20:08:02.455Z,57.84
2023-07-19T20:10:29.668Z,58.12
2023-07-19T20:12:56.465Z,59.52
2023-07-19T20:15:24.538Z,58.21
2023-07-19T20:17:51.189Z,52.05
2023-07-19T20:22:49.954Z,59.44
2023-07-19T20:25:33.838Z,51.20
2023-07-19T20:28:04.101Z,59.65
2023-07-19T20:30:43.997Z,59.37
2023-07-19T20:33:11.734Z,53.63
2023-07-19T20:43:09.079Z,58.75
2023-07-19T20:45:37.614Z,58.72
2023-07-19T20:48:05.272Z,53.92
2023-07-19T20:50:31.947Z,57.31
2023-07-19T20:52:58.609Z,60.20
2023-07-19T20:55:25.259Z,54.23
2023-07-19T20:57:51.928Z,58.83
2023-07-19T21:00:20.788Z,59.12
2023-07-19T21:02:48.952Z,59.42
2023-07-19T21:05:15.830Z,53.74
2023-07-19T21:07:42.490Z,59.29
2023-07-19T21:10:09.830Z,58.75
2023-07-19T21:12:36.489Z,59.11
2023-07-19T21:15:04.551Z,59.62
2023-07-19T21:17:31.258Z,59.39
2023-07-19T21:19:59.354Z,58.99
2023-07-19T21:22:26.057Z,59.25
2023-07-19T21:27:23.076Z,58.52
2023-07-19T21:29:49.680Z,58.80
2023-07-19T21:32:16.423Z,59.01
2023-07-19T21:34:43.153Z,58.88
2023-07-19T21:37:11.178Z,58.62
2023-07-19T21:39:37.799Z,58.89
2023-07-19T21:42:06.958Z,59.21
2023-07-19T21:44:33.453Z,59.03
2023-07-19T21:47:00.092Z,57.75
2023-07-19T21:49:26.737Z,58.75
2023-07-19T21:51:53.460Z,58.93
2023-07-19T21:54:21.640Z,58.59
2023-07-19T21:56:48.253Z,58.60
2023-07-19T21:59:14.982Z,58.74
2023-07-19T22:01:41.703Z,58.61
2023-07-19T22:04:08.410Z,58.91
2023-07-19T22:06:35.108Z,58.39
2023-07-19T22:09:01.971Z,58.86
2023-07-19T22:11:35.869Z,58.57
2023-07-19T22:14:02.581Z,58.82
2023-07-19T22:16:29.192Z,58.58
2023-07-19T22:18:55.886Z,59.00
2023-07-19T22:21:22.950Z,58.65
2023-07-19T22:23:49.896Z,58.95
2023-07-19T22:26:16.682Z,58.99
2023-07-19T22:28:44.782Z,58.29
2023-07-19T22:31:11.572Z,58.91
2023-07-19T22:33:38.489Z,58.81
2023-07-19T22:36:06.555Z,58.63
2023-07-19T22:38:33.245Z,56.45
2023-07-19T22:40:59.867Z,58.84
2023-07-19T22:43:26.753Z,58.76
2023-07-19T22:45:54.705Z,59.93
2023-07-19T22:48:21.349Z,59.55
2023-07-19T22:50:48.064Z,59.72
2023-07-19T22:53:14.762Z,59.56
2023-07-19T22:55:41.421Z,59.16
2023-07-19T22:58:08.073Z,58.88
2023-07-19T23:00:34.763Z,58.81
2023-07-19T23:03:02.865Z,58.58
2023-07-19T23:05:29.696Z,59.08
2023-07-19T23:07:56.616Z,58.67
2023-07-19T23:10:24.327Z,61.06
2023-07-19T23:12:54.004Z,60.08
2023-07-19T23:15:20.650Z,59.19
2023-07-19T23:17:47.295Z,59.28
2023-07-19T23:20:15.356Z,59.11
2023-07-19T23:22:42.068Z,58.27
2023-07-19T23:25:11.202Z,58.69
2023-07-19T23:27:39.163Z,59.19
2023-07-19T23:30:07.125Z,58.70
2023-07-19T23:32:33.943Z,58.41
2023-07-19T23:35:00.994Z,58.88
2023-07-19T23:37:29.406Z,58.90
2023-07-19T23:39:56.012Z,59.01
2023-07-19T23:42:22.633Z,59.12
2023-07-19T23:44:53.113Z,58.81
2023-07-19T23:47:20.412Z,59.01
2023-07-19T23:49:48.243Z,58.99
2023-07-19T23:52:17.884Z,58.65
2023-07-19T23:54:45.853Z,58.52
2023-07-19T23:57:12.516Z,65.83
2023-07-19T23:59:39.344Z,60.39
